sensor_id;sensor_type;location;lat;lon;timestamp;pressure;altitude;pressure_sealevel;temperature;humidity
41078;BME280;26823;42.662;23.352;2023-09-18T00:02:24;95286.50;;;16.36;100.00
41078;BME280;26823;42.662;23.352;2023-09-18T00:04:50;95283.88;;;16.31;100.00
41078;BME280;26823;42.662;23.352;2023-09-18T00:07:15;95282.47;;;16.34;100.00
41078;BME280;26823;42.662;23.352;2023-09-18T00:09:41;95282.88;;;16.41;100.00
41078;BME280;26823;42.662;23.352;2023-09-18T00:12:06;95287.44;;;16.32;100.00
41078;BME280;26823;42.662;23.352;2023-09-18T00:14:32;95278.72;;;16.29;100.00
41078;BME280;26823;42.662;23.352;2023-09-18T00:16:57;95282.03;;;16.26;100.00
41078;BME280;26823;42.662;23.352;2023-09-18T00:19:23;95288.13;;;16.23;100.00
41078;BME280;26823;42.662;23.352;2023-09-18T00:21:49;95276.78;;;16.30;100.00
41078;BME280;26823;42.662;23.352;2023-09-18T00:24:14;95276.09;;;16.24;100.00
41078;BME280;26823;42.662;23.352;2023-09-18T00:26:40;95284.28;;;16.24;100.00
41078;BME280;26823;42.662;23.352;2023-09-18T00:29:05;95284.97;;;16.44;100.00
41078;BME280;26823;42.662;23.352;2023-09-18T00:31:30;95279.94;;;16.37;100.00
41078;BME280;26823;42.662;23.352;2023-09-18T00:33:56;95283.56;;;16.33;100.00
41078;BME280;26823;42.662;23.352;2023-09-18T00:36:21;95282.56;;;16.28;100.00
41078;BME280;26823;42.662;23.352;2023-09-18T00:38:46;95291.56;;;16.29;100.00
41078;BME280;26823;42.662;23.352;2023-09-18T00:41:12;95291.38;;;16.25;100.00
41078;BME280;26823;42.662;23.352;2023-09-18T00:43:37;95284.59;;;16.23;100.00
41078;BME280;26823;42.662;23.352;2023-09-18T00:46:03;95284.38;;;16.33;100.00
41078;BME280;26823;42.662;23.352;2023-09-18T00:48:29;95292.56;;;16.33;100.00
41078;BME280;26823;42.662;23.352;2023-09-18T00:50:55;95292.78;;;16.37;100.00
41078;BME280;26823;42.662;23.352;2023-09-18T00:53:23;95288.44;;;16.36;100.00
41078;BME280;26823;42.662;23.352;2023-09-18T00:55:53;95299.25;;;16.41;100.00
41078;BME280;26823;42.662;23.352;2023-09-18T00:58:21;95297.81;;;16.43;100.00
41078;BME280;26823;42.662;23.352;2023-09-18T01:00:47;95292.25;;;16.49;100.00
41078;BME280;26823;42.662;23.352;2023-09-18T01:03:16;95291.25;;;16.44;100.00
41078;BME280;26823;42.662;23.352;2023-09-18T01:05:44;95299.25;;;16.55;100.00
41078;BME280;26823;42.662;23.352;2023-09-18T01:08:10;95300.66;;;16.52;99.63
41078;BME280;26823;42.662;23.352;2023-09-18T01:11:13;95293.16;;;16.58;99.39
41078;BME280;26823;42.662;23.352;2023-09-18T01:17:05;95304.81;;;16.50;100.00
41078;BME280;26823;42.662;23.352;2023-09-18T01:22:02;95294.09;;;16.53;99.11
41078;BME280;26823;42.662;23.352;2023-09-18T01:24:27;95297.50;;;16.59;98.91
41078;BME280;26823;42.662;23.352;2023-09-18T01:26:52;95268.31;;;16.32;98.94
41078;BME280;26823;42.662;23.352;2023-09-18T01:29:18;95292.47;;;16.52;98.71
41078;BME280;26823;42.662;23.352;2023-09-18T01:31:45;95298.94;;;16.42;98.70
41078;BME280;26823;42.662;23.352;2023-09-18T01:34:16;95298.41;;;16.40;98.66
41078;BME280;26823;42.662;23.352;2023-09-18T01:36:44;95307.63;;;16.44;98.90
41078;BME280;26823;42.662;23.352;2023-09-18T01:39:11;95300.03;;;16.41;99.16
41078;BME280;26823;42.662;23.352;2023-09-18T01:41:38;95302.97;;;16.31;99.72
41078;BME280;26823;42.662;23.352;2023-09-18T01:44:05;95294.00;;;16.30;99.42
41078;BME280;26823;42.662;23.352;2023-09-18T01:46:32;95303.38;;;16.38;99.27
41078;BME280;26823;42.662;23.352;2023-09-18T01:49:02;95311.38;;;16.49;99.04
41078;BME280;26823;42.662;23.352;2023-09-18T01:51:27;95303.69;;;16.37;99.58
41078;BME280;26823;42.662;23.352;2023-09-18T01:53:53;95300.66;;;16.38;99.61
41078;BME280;26823;42.662;23.352;2023-09-18T01:56:19;95300.03;;;16.41;99.90
41078;BME280;26823;42.662;23.352;2023-09-18T01:58:45;95287.59;;;16.21;100.00
41078;BME280;26823;42.662;23.352;2023-09-18T02:01:10;95303.19;;;16.35;100.00
41078;BME280;26823;42.662;23.352;2023-09-18T02:03:35;95308.34;;;16.36;100.00
41078;BME280;26823;42.662;23.352;2023-09-18T02:06:01;95310.69;;;16.29;100.00
41078;BME280;26823;42.662;23.352;2023-09-18T02:08:26;95306.59;;;16.40;99.52
41078;BME280;26823;42.662;23.352;2023-09-18T02:10:52;95318.03;;;16.42;99.25
41078;BME280;26823;42.662;23.352;2023-09-18T02:13:17;95307.84;;;16.34;99.85
41078;BME280;26823;42.662;23.352;2023-09-18T02:15:43;95307.94;;;16.43;99.35
41078;BME280;26823;42.662;23.352;2023-09-18T02:18:09;95310.16;;;16.41;99.10
41078;BME280;26823;42.662;23.352;2023-09-18T02:20:41;95314.78;;;16.40;99.52
41078;BME280;26823;42.662;23.352;2023-09-18T02:23:06;95311.88;;;16.37;99.56
41078;BME280;26823;42.662;23.352;2023-09-18T02:25:32;95305.59;;;16.36;99.66
41078;BME280;26823;42.662;23.352;2023-09-18T02:27:57;95302.38;;;16.34;99.50
41078;BME280;26823;42.662;23.352;2023-09-18T02:30:23;95310.84;;;16.33;99.47
41078;BME280;26823;42.662;23.352;2023-09-18T02:32:48;95312.69;;;16.37;99.61
41078;BME280;26823;42.662;23.352;2023-09-18T02:35:14;95310.16;;;16.41;98.93
41078;BME280;26823;42.662;23.352;2023-09-18T02:37:39;95314.41;;;16.47;98.40
41078;BME280;26823;42.662;23.352;2023-09-18T02:40:05;95304.50;;;16.37;98.28
41078;BME280;26823;42.662;23.352;2023-09-18T02:42:31;95303.59;;;16.14;99.73
41078;BME280;26823;42.662;23.352;2023-09-18T02:44:56;95302.88;;;16.22;99.06
41078;BME280;26823;42.662;23.352;2023-09-18T02:47:21;95302.88;;;16.08;99.58
41078;BME280;26823;42.662;23.352;2023-09-18T02:49:47;95304.19;;;16.11;99.73
41078;BME280;26823;42.662;23.352;2023-09-18T02:52:12;95310.75;;;16.24;99.13
41078;BME280;26823;42.662;23.352;2023-09-18T02:54:37;95305.50;;;16.13;99.51
41078;BME280;26823;42.662;23.352;2023-09-18T02:57:03;95312.25;;;16.16;99.32
41078;BME280;26823;42.662;23.352;2023-09-18T02:59:28;95309.16;;;16.09;99.79
41078;BME280;26823;42.662;23.352;2023-09-18T03:01:54;95309.13;;;15.95;100.00
41078;BME280;26823;42.662;23.352;2023-09-18T03:04:19;95314.47;;;15.86;100.00
41078;BME280;26823;42.662;23.352;2023-09-18T03:06:45;95321.31;;;15.84;100.00
41078;BME280;26823;42.662;23.352;2023-09-18T03:09:10;95320.13;;;15.90;100.00
41078;BME280;26823;42.662;23.352;2023-09-18T03:11:36;95304.50;;;15.76;100.00
41078;BME280;26823;42.662;23.352;2023-09-18T03:14:01;95306.59;;;15.65;100.00
41078;BME280;26823;42.662;23.352;2023-09-18T03:16:27;95307.72;;;15.64;100.00
41078;BME280;26823;42.662;23.352;2023-09-18T03:18:52;95313.88;;;15.70;100.00
41078;BME280;26823;42.662;23.352;2023-09-18T03:21:17;95314.88;;;15.74;100.00
41078;BME280;26823;42.662;23.352;2023-09-18T03:23:43;95310.44;;;15.64;100.00
41078;BME280;26823;42.662;23.352;2023-09-18T03:26:08;95308.00;;;15.63;100.00
41078;BME280;26823;42.662;23.352;2023-09-18T03:28:33;95307.91;;;15.68;100.00
41078;BME280;26823;42.662;23.352;2023-09-18T03:30:59;95294.66;;;15.61;100.00
41078;BME280;26823;42.662;23.352;2023-09-18T03:33:24;95301.13;;;15.65;100.00
41078;BME280;26823;42.662;23.352;2023-09-18T03:35:51;95296.41;;;15.71;100.00
41078;BME280;26823;42.662;23.352;2023-09-18T03:38:19;95301.44;;;15.64;100.00
41078;BME280;26823;42.662;23.352;2023-09-18T03:40:46;95299.66;;;15.73;100.00
41078;BME280;26823;42.662;23.352;2023-09-18T03:43:11;95294.59;;;15.80;100.00
41078;BME280;26823;42.662;23.352;2023-09-18T03:45:44;95290.44;;;15.69;100.00
41078;BME280;26823;42.662;23.352;2023-09-18T03:48:10;95292.97;;;15.79;100.00
41078;BME280;26823;42.662;23.352;2023-09-18T03:50:35;95289.34;;;15.70;100.00
41078;BME280;26823;42.662;23.352;2023-09-18T03:53:00;95287.22;;;15.67;100.00
41078;BME280;26823;42.662;23.352;2023-09-18T03:55:26;95286.97;;;15.49;100.00
41078;BME280;26823;42.662;23.352;2023-09-18T03:57:52;95290.50;;;15.50;100.00
41078;BME280;26823;42.662;23.352;2023-09-18T04:00:18;95289.69;;;15.49;100.00
41078;BME280;26823;42.662;23.352;2023-09-18T04:02:43;95288.88;;;15.49;100.00
41078;BME280;26823;42.662;23.352;2023-09-18T04:05:08;95282.69;;;15.43;100.00
41078;BME280;26823;42.662;23.352;2023-09-18T04:07:35;95285.88;;;15.51;100.00
41078;BME280;26823;42.662;23.352;2023-09-18T04:10:00;95279.53;;;15.36;100.00
41078;BME280;26823;42.662;23.352;2023-09-18T04:12:32;95284.81;;;15.46;100.00
41078;BME280;26823;42.662;23.352;2023-09-18T04:14:58;95288.88;;;15.49;100.00
41078;BME280;26823;42.662;23.352;2023-09-18T04:17:23;95289.25;;;15.42;100.00
41078;BME280;26823;42.662;23.352;2023-09-18T04:19:49;95297.13;;;15.44;100.00
41078;BME280;26823;42.662;23.352;2023-09-18T04:22:14;95285.06;;;15.31;100.00
41078;BME280;26823;42.662;23.352;2023-09-18T04:24:40;95294.88;;;15.32;100.00
41078;BME280;26823;42.662;23.352;2023-09-18T04:27:06;95295.09;;;15.36;100.00
41078;BME280;26823;42.662;23.352;2023-09-18T04:29:31;95297.75;;;15.41;100.00
41078;BME280;26823;42.662;23.352;2023-09-18T04:31:57;95310.53;;;15.59;100.00
41078;BME280;26823;42.662;23.352;2023-09-18T04:34:23;95305.78;;;15.65;100.00
41078;BME280;26823;42.662;23.352;2023-09-18T04:36:48;95297.13;;;15.44;100.00
41078;BME280;26823;42.662;23.352;2023-09-18T04:39:14;95288.69;;;15.45;100.00
41078;BME280;26823;42.662;23.352;2023-09-18T04:41:39;95310.75;;;15.44;100.00
41078;BME280;26823;42.662;23.352;2023-09-18T04:44:05;95302.31;;;15.45;100.00
41078;BME280;26823;42.662;23.352;2023-09-18T04:46:30;95314.84;;;15.60;100.00
41078;BME280;26823;42.662;23.352;2023-09-18T04:48:56;95311.25;;;15.65;100.00
41078;BME280;26823;42.662;23.352;2023-09-18T04:51:21;95307.53;;;15.75;100.00
41078;BME280;26823;42.662;23.352;2023-09-18T04:53:46;95297.69;;;15.60;100.00
41078;BME280;26823;42.662;23.352;2023-09-18T04:56:12;95300.63;;;15.63;100.00
41078;BME280;26823;42.662;23.352;2023-09-18T04:58:38;95292.81;;;15.76;100.00
41078;BME280;26823;42.662;23.352;2023-09-18T05:01:04;95298.59;;;15.88;100.00
41078;BME280;26823;42.662;23.352;2023-09-18T05:03:35;95305.66;;;15.89;100.00
41078;BME280;26823;42.662;23.352;2023-09-18T05:06:02;95305.97;;;15.88;100.00
41078;BME280;26823;42.662;23.352;2023-09-18T05:08:30;95299.75;;;16.01;100.00
41078;BME280;26823;42.662;23.352;2023-09-18T05:10:56;95299.75;;;16.15;100.00
41078;BME280;26823;42.662;23.352;2023-09-18T05:13:23;95299.13;;;16.18;100.00
41078;BME280;26823;42.662;23.352;2023-09-18T05:15:48;95299.56;;;16.25;99.35
41078;BME280;26823;42.662;23.352;2023-09-18T05:18:13;95314.41;;;16.33;98.76
41078;BME280;26823;42.662;23.352;2023-09-18T05:20:39;95313.59;;;16.33;98.89
41078;BME280;26823;42.662;23.352;2023-09-18T05:23:05;95317.44;;;16.45;98.49
41078;BME280;26823;42.662;23.352;2023-09-18T05:25:30;95315.94;;;16.53;97.33
41078;BME280;26823;42.662;23.352;2023-09-18T05:27:58;95325.31;;;16.61;97.15
41078;BME280;26823;42.662;23.352;2023-09-18T05:30:29;95328.75;;;16.53;97.17
41078;BME280;26823;42.662;23.352;2023-09-18T05:32:56;95315.19;;;16.61;97.32
41078;BME280;26823;42.662;23.352;2023-09-18T05:35:22;95318.31;;;16.83;96.58
41078;BME280;26823;42.662;23.352;2023-09-18T05:37:49;95323.47;;;16.98;95.46
41078;BME280;26823;42.662;23.352;2023-09-18T05:40:15;95323.78;;;16.83;95.44
41078;BME280;26823;42.662;23.352;2023-09-18T05:42:42;95320.06;;;16.65;95.36
41078;BME280;26823;42.662;23.352;2023-09-18T05:45:14;95319.56;;;16.49;96.53
41078;BME280;26823;42.662;23.352;2023-09-18T05:47:41;95322.72;;;16.42;97.16
41078;BME280;26823;42.662;23.352;2023-09-18T05:50:11;95324.34;;;16.43;97.22
41078;BME280;26823;42.662;23.352;2023-09-18T05:52:41;95337.78;;;16.67;96.82
41078;BME280;26823;42.662;23.352;2023-09-18T05:55:07;95334.09;;;16.86;96.55
41078;BME280;26823;42.662;23.352;2023-09-18T05:57:34;95329.56;;;16.95;94.99
41078;BME280;26823;42.662;23.352;2023-09-18T05:59:59;95328.72;;;17.08;93.78
41078;BME280;26823;42.662;23.352;2023-09-18T06:02:25;95310.22;;;17.05;93.52
41078;BME280;26823;42.662;23.352;2023-09-18T06:04:58;95333.75;;;17.29;92.96
41078;BME280;26823;42.662;23.352;2023-09-18T06:07:27;95326.75;;;17.23;93.34
41078;BME280;26823;42.662;23.352;2023-09-18T06:09:53;95328.47;;;17.19;92.96
41078;BME280;26823;42.662;23.352;2023-09-18T06:12:19;95310.38;;;17.23;92.95
41078;BME280;26823;42.662;23.352;2023-09-18T06:14:44;95318.94;;;17.53;92.57
41078;BME280;26823;42.662;23.352;2023-09-18T06:17:11;95325.31;;;17.62;91.52
41078;BME280;26823;42.662;23.352;2023-09-18T06:19:37;95330.38;;;17.55;90.56
41078;BME280;26823;42.662;23.352;2023-09-18T06:22:02;95328.88;;;17.49;90.49
41078;BME280;26823;42.662;23.352;2023-09-18T06:24:28;95333.84;;;17.69;90.80
41078;BME280;26823;42.662;23.352;2023-09-18T06:26:53;95334.03;;;17.73;89.94
41078;BME280;26823;42.662;23.352;2023-09-18T06:29:19;95333.94;;;18.01;88.77
41078;BME280;26823;42.662;23.352;2023-09-18T06:31:45;95340.38;;;18.05;87.37
41078;BME280;26823;42.662;23.352;2023-09-18T06:34:10;95333.19;;;18.09;87.44
41078;BME280;26823;42.662;23.352;2023-09-18T06:36:36;95338.34;;;18.11;86.85
41078;BME280;26823;42.662;23.352;2023-09-18T06:39:02;95340.66;;;18.26;85.37
41078;BME280;26823;42.662;23.352;2023-09-18T06:41:28;95337.69;;;18.14;86.04
41078;BME280;26823;42.662;23.352;2023-09-18T06:43:53;95334.25;;;18.31;85.98
41078;BME280;26823;42.662;23.352;2023-09-18T06:46:18;95334.31;;;18.48;85.73
41078;BME280;26823;42.662;23.352;2023-09-18T06:48:44;95334.38;;;18.57;84.53
41078;BME280;26823;42.662;23.352;2023-09-18T06:51:11;95328.94;;;18.83;84.19
41078;BME280;26823;42.662;23.352;2023-09-18T06:53:36;95336.53;;;18.86;82.29
41078;BME280;26823;42.662;23.352;2023-09-18T06:56:01;95330.19;;;18.68;82.50
41078;BME280;26823;42.662;23.352;2023-09-18T06:58:27;95337.63;;;18.77;82.45
41078;BME280;26823;42.662;23.352;2023-09-18T07:00:52;95318.25;;;18.64;82.38
41078;BME280;26823;42.662;23.352;2023-09-18T07:03:18;95333.63;;;18.83;82.56
41078;BME280;26823;42.662;23.352;2023-09-18T07:05:43;95339.50;;;19.16;81.20
41078;BME280;26823;42.662;23.352;2023-09-18T07:08:09;95338.41;;;19.70;79.81
41078;BME280;26823;42.662;23.352;2023-09-18T07:10:37;95344.69;;;19.88;76.71
41078;BME280;26823;42.662;23.352;2023-09-18T07:13:03;95338.50;;;20.17;76.31
41078;BME280;26823;42.662;23.352;2023-09-18T07:15:29;95333.06;;;19.21;78.64
41078;BME280;26823;42.662;23.352;2023-09-18T07:17:54;95339.63;;;18.94;80.19
41078;BME280;26823;42.662;23.352;2023-09-18T07:20:20;95326.94;;;19.06;80.32
41078;BME280;26823;42.662;23.352;2023-09-18T07:22:47;95312.94;;;19.43;79.22
41078;BME280;26823;42.662;23.352;2023-09-18T07:25:13;95333.38;;;19.90;77.57
41078;BME280;26823;42.662;23.352;2023-09-18T07:27:39;95340.22;;;20.40;75.27
41078;BME280;26823;42.662;23.352;2023-09-18T07:30:10;95344.34;;;19.81;75.48
41078;BME280;26823;42.662;23.352;2023-09-18T07:32:35;95344.69;;;19.70;75.60
41078;BME280;26823;42.662;23.352;2023-09-18T07:35:01;95334.69;;;19.83;75.83
41078;BME280;26823;42.662;23.352;2023-09-18T07:37:27;95344.34;;;19.98;75.61
41078;BME280;26823;42.662;23.352;2023-09-18T07:39:53;95345.63;;;20.10;74.74
41078;BME280;26823;42.662;23.352;2023-09-18T07:42:18;95352.53;;;20.25;74.70
41078;BME280;26823;42.662;23.352;2023-09-18T07:44:44;95336.81;;;20.43;74.81
41078;BME280;26823;42.662;23.352;2023-09-18T07:47:09;95343.66;;;20.66;73.53
41078;BME280;26823;42.662;23.352;2023-09-18T07:49:34;95340.38;;;20.82;72.48
41078;BME280;26823;42.662;23.352;2023-09-18T07:52:00;95333.88;;;20.48;72.11
41078;BME280;26823;42.662;23.352;2023-09-18T07:54:25;95338.28;;;20.31;72.82
41078;BME280;26823;42.662;23.352;2023-09-18T07:56:50;95340.03;;;20.45;73.19
41078;BME280;26823;42.662;23.352;2023-09-18T07:59:16;95337.84;;;20.29;72.84
41078;BME280;26823;42.662;23.352;2023-09-18T08:01:42;95339.31;;;20.57;72.61
41078;BME280;26823;42.662;23.352;2023-09-18T08:04:07;95330.56;;;20.72;71.47
41078;BME280;26823;42.662;23.352;2023-09-18T08:06:33;95331.88;;;20.96;70.64
41078;BME280;26823;42.662;23.352;2023-09-18T08:08:58;95324.25;;;21.01;69.89
41078;BME280;26823;42.662;23.352;2023-09-18T08:11:23;95334.09;;;20.81;69.86
41078;BME280;26823;42.662;23.352;2023-09-18T08:13:49;95331.50;;;21.06;69.30
41078;BME280;26823;42.662;23.352;2023-09-18T08:16:14;95328.28;;;21.25;68.77
41078;BME280;26823;42.662;23.352;2023-09-18T08:18:40;95324.38;;;21.05;68.87
41078;BME280;26823;42.662;23.352;2023-09-18T08:21:07;95324.41;;;21.26;68.22
41078;BME280;26823;42.662;23.352;2023-09-18T08:23:35;95317.56;;;21.32;68.06
41078;BME280;26823;42.662;23.352;2023-09-18T08:26:00;95314.00;;;21.11;67.63
41078;BME280;26823;42.662;23.352;2023-09-18T08:28:26;95318.06;;;21.34;68.37
41078;BME280;26823;42.662;23.352;2023-09-18T08:30:51;95320.94;;;21.17;67.63
41078;BME280;26823;42.662;23.352;2023-09-18T08:33:17;95324.31;;;21.14;67.50
41078;BME280;26823;42.662;23.352;2023-09-18T08:35:42;95316.88;;;21.35;67.38
41078;BME280;26823;42.662;23.352;2023-09-18T08:38:09;95300.75;;;21.55;66.57
41078;BME280;26823;42.662;23.352;2023-09-18T08:40:34;95316.94;;;21.90;65.68
41078;BME280;26823;42.662;23.352;2023-09-18T08:43:00;95311.66;;;21.85;65.29
41078;BME280;26823;42.662;23.352;2023-09-18T08:45:39;95304.84;;;22.16;64.26
41078;BME280;26823;42.662;23.352;2023-09-18T08:48:08;95296.31;;;22.42;63.84
41078;BME280;26823;42.662;23.352;2023-09-18T08:50:34;95293.44;;;22.51;62.67
41078;BME280;26823;42.662;23.352;2023-09-18T08:53:01;95305.72;;;22.41;62.42
41078;BME280;26823;42.662;23.352;2023-09-18T08:55:27;95298.00;;;22.35;62.39
41078;BME280;26823;42.662;23.352;2023-09-18T08:57:55;95297.22;;;22.46;62.29
41078;BME280;26823;42.662;23.352;2023-09-18T09:00:23;95283.34;;;22.55;62.58
41078;BME280;26823;42.662;23.352;2023-09-18T09:02:48;95295.72;;;22.86;61.35
41078;BME280;26823;42.662;23.352;2023-09-18T09:05:16;95276.69;;;22.56;59.59
41078;BME280;26823;42.662;23.352;2023-09-18T09:07:41;95282.84;;;22.41;60.43
41078;BME280;26823;42.662;23.352;2023-09-18T09:10:07;95291.81;;;22.38;60.83
41078;BME280;26823;42.662;23.352;2023-09-18T09:13:08;95295.56;;;22.33;60.87
41078;BME280;26823;42.662;23.352;2023-09-18T09:15:46;95284.03;;;22.40;61.08
41078;BME280;26823;42.662;23.352;2023-09-18T09:18:13;95282.72;;;22.25;60.00
41078;BME280;26823;42.662;23.352;2023-09-18T09:21:08;95294.53;;;22.25;60.14
41078;BME280;26823;42.662;23.352;2023-09-18T09:23:52;95296.09;;;22.47;59.94
41078;BME280;26823;42.662;23.352;2023-09-18T09:26:20;95287.59;;;22.53;60.96
41078;BME280;26823;42.662;23.352;2023-09-18T09:28:46;95286.31;;;22.50;58.77
41078;BME280;26823;42.662;23.352;2023-09-18T09:31:25;95288.09;;;22.21;60.05
41078;BME280;26823;42.662;23.352;2023-09-18T09:33:52;95275.22;;;22.01;60.10
41078;BME280;26823;42.662;23.352;2023-09-18T09:36:21;95273.94;;;21.98;59.88
41078;BME280;26823;42.662;23.352;2023-09-18T09:38:57;95278.78;;;21.67;60.73
41078;BME280;26823;42.662;23.352;2023-09-18T09:41:23;95270.31;;;21.51;61.25
41078;BME280;26823;42.662;23.352;2023-09-18T09:43:48;95280.50;;;21.72;61.49
41078;BME280;26823;42.662;23.352;2023-09-18T09:46:17;95270.53;;;21.80;60.37
41078;BME280;26823;42.662;23.352;2023-09-18T09:49:04;95259.50;;;22.13;60.76
41078;BME280;26823;42.662;23.352;2023-09-18T09:51:30;95254.44;;;22.03;57.57
41078;BME280;26823;42.662;23.352;2023-09-18T09:53:57;95257.91;;;22.12;57.43
41078;BME280;26823;42.662;23.352;2023-09-18T09:59:11;95259.84;;;22.24;56.38
41078;BME280;26823;42.662;23.352;2023-09-18T10:01:38;95250.69;;;22.32;56.27
41078;BME280;26823;42.662;23.352;2023-09-18T10:04:09;95245.13;;;22.08;57.01
41078;BME280;26823;42.662;23.352;2023-09-18T10:06:36;95245.41;;;22.27;56.89
41078;BME280;26823;42.662;23.352;2023-09-18T10:09:03;95250.31;;;22.22;56.44
41078;BME280;26823;42.662;23.352;2023-09-18T10:11:31;95251.16;;;22.22;57.21
41078;BME280;26823;42.662;23.352;2023-09-18T10:14:04;95249.69;;;22.37;57.68
41078;BME280;26823;42.662;23.352;2023-09-18T10:16:34;95247.75;;;22.50;56.80
41078;BME280;26823;42.662;23.352;2023-09-18T10:21:41;95194.13;;;22.60;55.09
41078;BME280;26823;42.662;23.352;2023-09-18T10:26:51;95236.31;;;22.89;54.15
41078;BME280;26823;42.662;23.352;2023-09-18T10:29:22;95234.13;;;23.07;54.19
41078;BME280;26823;42.662;23.352;2023-09-18T10:31:50;95230.53;;;23.06;53.45
41078;BME280;26823;42.662;23.352;2023-09-18T10:34:17;95227.88;;;23.22;52.06
41078;BME280;26823;42.662;23.352;2023-09-18T10:36:43;95218.06;;;23.37;51.34
41078;BME280;26823;42.662;23.352;2023-09-18T10:39:10;95214.44;;;23.49;52.69
41078;BME280;26823;42.662;23.352;2023-09-18T10:41:38;95221.41;;;23.31;50.35
41078;BME280;26823;42.662;23.352;2023-09-18T10:44:04;95206.81;;;23.30;50.48
41078;BME280;26823;42.662;23.352;2023-09-18T10:46:30;95197.72;;;23.58;50.57
41078;BME280;26823;42.662;23.352;2023-09-18T10:48:56;95198.25;;;23.92;50.36
41078;BME280;26823;42.662;23.352;2023-09-18T10:51:23;95203.81;;;23.80;49.56
41078;BME280;26823;42.662;23.352;2023-09-18T10:53:50;95193.44;;;23.60;48.99
41078;BME280;26823;42.662;23.352;2023-09-18T10:56:19;95187.22;;;23.64;50.88
41078;BME280;26823;42.662;23.352;2023-09-18T10:58:45;95201.09;;;23.96;48.40
41078;BME280;26823;42.662;23.352;2023-09-18T11:01:13;95187.41;;;23.71;48.78
41078;BME280;26823;42.662;23.352;2023-09-18T11:03:39;95188.94;;;23.84;48.01
41078;BME280;26823;42.662;23.352;2023-09-18T11:06:08;95194.63;;;23.75;48.76
41078;BME280;26823;42.662;23.352;2023-09-18T11:08:43;95166.09;;;23.55;49.28
41078;BME280;26823;42.662;23.352;2023-09-18T11:11:10;95191.47;;;23.61;48.48
41078;BME280;26823;42.662;23.352;2023-09-18T11:13:46;95172.66;;;23.35;49.15
41078;BME280;26823;42.662;23.352;2023-09-18T11:16:39;95185.03;;;23.85;48.76
41078;BME280;26823;42.662;23.352;2023-09-18T11:21:33;95191.72;;;23.84;47.65
41078;BME280;26823;42.662;23.352;2023-09-18T11:26:42;95168.69;;;23.80;47.28
41078;BME280;26823;42.662;23.352;2023-09-18T11:29:10;95173.13;;;23.97;47.57
41078;BME280;26823;42.662;23.352;2023-09-18T11:31:56;95168.19;;;23.90;46.83
41078;BME280;26823;42.662;23.352;2023-09-18T11:34:28;95166.25;;;23.91;47.30
41078;BME280;26823;42.662;23.352;2023-09-18T11:36:57;95164.91;;;24.17;46.35
41078;BME280;26823;42.662;23.352;2023-09-18T11:39:33;95158.59;;;24.16;46.65
41078;BME280;26823;42.662;23.352;2023-09-18T11:42:18;95153.34;;;23.95;46.91
41078;BME280;26823;42.662;23.352;2023-09-18T11:44:44;95152.69;;;23.86;47.83
41078;BME280;26823;42.662;23.352;2023-09-18T11:47:15;95154.41;;;24.22;48.07
41078;BME280;26823;42.662;23.352;2023-09-18T11:49:55;95143.84;;;24.28;45.93
41078;BME280;26823;42.662;23.352;2023-09-18T11:52:27;95145.09;;;24.31;46.11
41078;BME280;26823;42.662;23.352;2023-09-18T11:54:54;95141.63;;;24.34;45.40
41078;BME280;26823;42.662;23.352;2023-09-18T11:57:20;95137.63;;;24.15;45.65
41078;BME280;26823;42.662;23.352;2023-09-18T11:59:46;95145.09;;;24.31;46.92
41078;BME280;26823;42.662;23.352;2023-09-18T12:02:32;95141.09;;;24.64;44.76
41078;BME280;26823;42.662;23.352;2023-09-18T12:05:19;95133.50;;;24.41;44.65
41078;BME280;26823;42.662;23.352;2023-09-18T12:07:46;95139.00;;;24.41;46.36
41078;BME280;26823;42.662;23.352;2023-09-18T12:10:14;95138.91;;;24.69;46.07
41078;BME280;26823;42.662;23.352;2023-09-18T12:12:41;95144.06;;;24.71;45.63
41078;BME280;26823;42.662;23.352;2023-09-18T12:15:11;95144.72;;;24.64;45.14
41078;BME280;26823;42.662;23.352;2023-09-18T12:17:36;95130.66;;;24.37;45.88
41078;BME280;26823;42.662;23.352;2023-09-18T12:20:02;95142.22;;;24.43;46.98
41078;BME280;26823;42.662;23.352;2023-09-18T12:22:30;95143.31;;;24.38;47.20
41078;BME280;26823;42.662;23.352;2023-09-18T12:25:28;95104.00;;;24.29;46.71
41078;BME280;26823;42.662;23.352;2023-09-18T12:27:54;95106.38;;;24.11;47.37
41078;BME280;26823;42.662;23.352;2023-09-18T12:30:21;95123.25;;;24.41;47.66
41078;BME280;26823;42.662;23.352;2023-09-18T12:32:48;95120.56;;;24.09;47.99
41078;BME280;26823;42.662;23.352;2023-09-18T12:35:14;95129.44;;;24.35;47.84
41078;BME280;26823;42.662;23.352;2023-09-18T12:37:40;95118.44;;;24.38;48.25
41078;BME280;26823;42.662;23.352;2023-09-18T12:42:51;95123.63;;;24.59;46.33
41078;BME280;26823;42.662;23.352;2023-09-18T12:45:19;95130.59;;;24.18;47.35
41078;BME280;26823;42.662;23.352;2023-09-18T12:47:45;95133.28;;;24.14;47.79
41078;BME280;26823;42.662;23.352;2023-09-18T12:50:14;95127.22;;;23.92;48.34
41078;BME280;26823;42.662;23.352;2023-09-18T12:52:40;95129.53;;;24.22;48.90
41078;BME280;26823;42.662;23.352;2023-09-18T12:55:06;95114.47;;;24.20;47.59
41078;BME280;26823;42.662;23.352;2023-09-18T12:57:34;95128.13;;;23.97;48.29
41078;BME280;26823;42.662;23.352;2023-09-18T13:00:08;95115.00;;;23.77;48.52
41078;BME280;26823;42.662;23.352;2023-09-18T13:02:37;95111.13;;;23.94;48.63
41078;BME280;26823;42.662;23.352;2023-09-18T13:05:03;95114.28;;;24.13;49.29
41078;BME280;26823;42.662;23.352;2023-09-18T13:07:29;95107.16;;;24.27;48.18
41078;BME280;26823;42.662;23.352;2023-09-18T13:10:03;95112.59;;;24.24;47.46
41078;BME280;26823;42.662;23.352;2023-09-18T13:12:48;95111.91;;;24.11;47.65